37 Rocks — ZM3003 — position and weather

sailwx.info

Track history (hours):
 
Tides and Currents Weather Stations Pressure Air Temp Water Temp Dewpoint Dewpoint Depression Visibility Wind Speed Wind Dir Waves Ship Positions

37 Rocks

Last reported at 2016-Jun-28 13:33 UTC. Time now 2016-Jun-29 00:13 UTC.
Position N 36°59' E 025°22'.

Length 17 m.

Type: Sailing vessel. MMSI: 512003230.

Date/timePositionNaut miles runAvg speedWind from/ knotsBaromVisibWave heightAir tempDewpointWater temp
2016-Jun-28 13:33N 36°59' E 025°22'5 4.5
2016-Jun-28 12:33N 37°04' E 025°19'3 2.6
2016-Jun-28 11:31N 37°06' E 025°21'1 0.1
2016-Jun-27 14:23N 37°06' E 025°22'2 2.0
2016-Jun-27 13:33N 37°07' E 025°20'3 2.7
2016-Jun-27 12:32N 37°08' E 025°17'0 0.0
2016-Jun-27 11:32N 37°08' E 025°17'0 0.0
2016-Jun-27 10:32N 37°08' E 025°17'1 1.1
2016-Jun-27 09:33N 37°09' E 025°17'12 0.4
2016-Jun-26 06:32N 37°02' E 025°05'0 0.0
2016-Jun-25 16:22N 37°02' E 025°05'0 0.0
2016-Jun-25 15:33N 37°02' E 025°05'0 0.2
2016-Jun-25 14:33N 37°02' E 025°05'0 0.4
2016-Jun-25 13:33N 37°03' E 025°06'  
2016-Jun-21 09:24N 37°23' E 025°07'5 5.9
2016-Jun-21 08:33N 37°22' E 025°13'5 4.8
2016-Jun-21 07:33N 37°21' E 025°19'4 3.7
2016-Jun-21 06:29N 37°25' E 025°21'0 0.0
2016-Jun-20 08:27N 37°25' E 025°21'0 0.0
2016-Jun-19 08:23N 37°25' E 025°21'  
Track history (hours):
 
Tides and Currents Weather Stations Pressure Air Temp Water Temp Dewpoint Dewpoint Depression Visibility Wind Speed Wind Dir Waves Ship Positions

37 Rocks

Last reported at 2016-Jun-28 13:33 UTC. Time now 2016-Jun-29 00:13 UTC.
Position N 36°59' E 025°22'.

Length 17 m.

Type: Sailing vessel. MMSI: 512003230.

Date/timePositionNaut miles runAvg speedWind from/ knotsBaromVisibWave heightAir tempDewpointWater temp
2016-Jun-28 13:33N 36°59' E 025°22'5 4.5
2016-Jun-28 12:33N 37°04' E 025°19'3 2.6
2016-Jun-28 11:31N 37°06' E 025°21'1 0.1
2016-Jun-27 14:23N 37°06' E 025°22'2 2.0
2016-Jun-27 13:33N 37°07' E 025°20'3 2.7
2016-Jun-27 12:32N 37°08' E 025°17'0 0.0
2016-Jun-27 11:32N 37°08' E 025°17'0 0.0
2016-Jun-27 10:32N 37°08' E 025°17'1 1.1
2016-Jun-27 09:33N 37°09' E 025°17'12 0.4
2016-Jun-26 06:32N 37°02' E 025°05'0 0.0
2016-Jun-25 16:22N 37°02' E 025°05'0 0.0
2016-Jun-25 15:33N 37°02' E 025°05'0 0.2
2016-Jun-25 14:33N 37°02' E 025°05'0 0.4
2016-Jun-25 13:33N 37°03' E 025°06'  
2016-Jun-21 09:24N 37°23' E 025°07'5 5.9
2016-Jun-21 08:33N 37°22' E 025°13'5 4.8
2016-Jun-21 07:33N 37°21' E 025°19'4 3.7
2016-Jun-21 06:29N 37°25' E 025°21'0 0.0
2016-Jun-20 08:27N 37°25' E 025°21'0 0.0
2016-Jun-19 08:23N 37°25' E 025°21'  

Dump ship's entire track history